Time;durP1;ratioP1;P1;durP2;ratioP2;P2;SDS_P1;SDS_P2;PMS_P1;PMS_P2;Temp;Humidity;BMP_temperature;BMP_pressure;BME280_temperature;BME280_humidity;BME280_pressure;Samples;Min_cycle;Max_cycle;Signal;HPM_P1;HPM_P2
2022/08/03 00:02:15;;;;;;;1.95;1.05;;;19.30;99.90;;;19.04;100.00;97664.63;4943132;28;20059;-64
2022/08/03 00:04:43;;;;;;;2.33;1.40;;;19.30;99.90;;;18.98;100.00;97665.13;4940271;28;20079;-64
2022/08/03 00:07:10;;;;;;;2.03;1.25;;;19.30;99.90;;;18.94;100.00;97666.31;4939041;28;20146;-64
2022/08/03 00:09:37;;;;;;;1.80;1.08;;;19.20;99.90;;;19.02;100.00;97656.88;4938299;28;20075;-64
2022/08/03 00:12:04;;;;;;;3.55;1.40;;;19.20;99.90;;;18.99;100.00;97658.91;4940898;28;20441;-64
2022/08/03 00:14:31;;;;;;;2.67;1.30;;;19.20;99.90;;;18.89;100.00;97656.13;4939724;28;20075;-64
2022/08/03 00:16:58;;;;;;;1.95;1.17;;;19.20;99.90;;;18.88;100.00;97662.31;4937658;28;20047;-64
2022/08/03 00:19:25;;;;;;;3.30;1.50;;;19.20;99.90;;;18.85;100.00;97661.72;4942035;28;20052;-64
2022/08/03 00:21:52;;;;;;;4.10;1.60;;;19.10;99.90;;;18.76;100.00;97664.06;4940956;28;20157;-64
2022/08/03 00:24:20;;;;;;;5.63;1.95;;;19.10;99.90;;;18.42;100.00;97664.88;4944409;28;20082;-64
2022/08/03 00:26:46;;;;;;;3.25;1.80;;;19.00;99.90;;;18.23;100.00;97662.75;4938632;28;20061;-64
2022/08/03 00:29:13;;;;;;;2.45;1.58;;;18.90;99.90;;;18.14;100.00;97665.09;4936917;28;20088;-64
2022/08/03 00:31:40;;;;;;;3.67;2.22;;;18.80;99.90;;;18.00;100.00;97674.91;4937846;28;20138;-64
2022/08/03 00:34:24;;;;;;;3.10;1.33;;;18.70;99.90;;;18.25;100.00;97663.50;4938786;28;20489;-64
2022/08/03 00:37:11;;;;;;;2.35;1.42;;;18.70;99.90;;;18.27;100.00;97666.81;4941357;28;20446;-64
2022/08/03 00:39:39;;;;;;;3.30;1.80;;;18.80;99.90;;;18.24;100.00;97665.25;4939090;28;20053;-63
2022/08/03 00:42:06;;;;;;;5.68;1.80;;;18.80;99.90;;;18.00;100.00;97669.66;4938036;28;20126;-64
2022/08/03 00:44:42;;;;;;;3.78;1.65;;;18.70;99.90;;;18.00;100.00;97669.66;4956966;28;20485;-64
2022/08/03 00:47:10;;;;;;;2.42;1.65;;;18.70;99.90;;;17.83;100.00;97674.31;4938739;28;20047;-64
2022/08/03 00:49:39;;;;;;;2.97;2.08;;;18.60;99.90;;;17.90;100.00;97678.19;4941195;28;20083;-64
2022/08/03 00:52:12;;;;;;;2.80;1.80;;;18.50;99.90;;;17.72;100.00;97674.19;4952693;28;20051;-64
2022/08/03 00:54:39;;;;;;;4.63;2.10;;;18.40;99.90;;;17.89;100.00;97667.78;4941320;28;20593;-64
2022/08/03 00:57:07;;;;;;;2.47;1.70;;;18.40;99.90;;;18.01;100.00;97663.44;4941889;28;20054;-64
2022/08/03 00:59:35;;;;;;;3.67;1.85;;;18.40;99.90;;;17.97;100.00;97660.19;4940894;28;20083;-64
2022/08/03 01:02:02;;;;;;;7.45;3.20;;;18.40;99.90;;;17.69;100.00;97669.16;4937613;28;20146;-64
2022/08/03 01:04:29;;;;;;;3.58;1.80;;;18.30;99.90;;;17.51;100.00;97676.53;4957670;28;20051;-64
2022/08/03 01:07:09;;;;;;;5.25;1.90;;;18.30;99.90;;;17.41;100.00;97681.56;4938732;28;20051;-64
2022/08/03 01:10:14;;;;;;;4.88;1.88;;;18.20;99.90;;;17.29;100.00;97682.44;4954589;28;20086;-64
2022/08/03 01:13:26;;;;;;;3.42;2.10;;;18.10;99.90;;;17.30;100.00;97677.06;4937729;28;20131;-64
2022/08/03 01:16:37;;;;;;;2.60;1.98;;;18.10;99.90;;;17.07;100.00;97689.09;4950251;28;20154;-64
2022/08/03 01:19:35;;;;;;;3.42;2.10;;;18.00;99.90;;;16.98;100.00;97692.34;4942976;28;20488;-64
2022/08/03 01:22:44;;;;;;;3.55;1.92;;;17.90;99.90;;;17.08;100.00;97692.56;4951994;28;20499;-64
2022/08/03 01:25:22;;;;;;;2.92;2.28;;;17.80;99.90;;;17.31;100.00;97688.38;4955223;28;20052;-64
2022/08/03 01:28:08;;;;;;;4.35;2.10;;;17.90;99.90;;;17.48;100.00;97682.81;4943145;28;20049;-64
2022/08/03 01:30:40;;;;;;;4.93;1.65;;;18.10;99.90;;;17.56;100.00;97675.28;4946607;28;20139;-64
2022/08/03 01:33:23;;;;;;;4.72;1.60;;;18.10;99.90;;;17.42;100.00;97667.50;4955839;28;20047;-64
2022/08/03 01:36:04;;;;;;;2.88;2.05;;;18.10;99.90;;;17.40;100.00;97669.38;4940604;28;20051;-64
2022/08/03 01:38:42;;;;;;;3.53;1.60;;;18.10;99.90;;;17.45;100.00;97664.69;4955150;28;20648;-64
2022/08/03 01:41:29;;;;;;;3.25;1.65;;;18.00;99.90;;;17.41;100.00;97663.19;4954633;28;20051;-64
2022/08/03 01:44:00;;;;;;;3.08;2.00;;;18.00;99.90;;;17.35;100.00;97667.06;4957780;28;20051;-64
2022/08/03 01:46:50;;;;;;;3.00;1.73;;;17.90;99.90;;;17.40;100.00;97668.53;4952599;28;20054;-64
2022/08/03 01:49:17;;;;;;;3.17;1.73;;;17.80;99.90;;;17.25;100.00;97658.16;4957901;28;20053;-64
2022/08/03 01:51:47;;;;;;;2.60;1.63;;;17.80;99.90;;;17.25;100.00;97666.03;4938232;28;20071;-64
2022/08/03 01:54:35;;;;;;;2.33;1.55;;;17.80;99.90;;;17.11;100.00;97663.53;4943050;28;20063;-64
2022/08/03 01:57:03;;;;;;;2.90;1.90;;;17.70;99.90;;;16.98;100.00;97670.53;4941961;28;20098;-64
2022/08/03 01:59:33;;;;;;;2.83;2.00;;;17.70;99.90;;;16.86;100.00;97677.44;4955174;28;20056;-64
2022/08/03 02:02:02;;;;;;;2.90;2.00;;;17.60;99.90;;;16.81;100.00;97675.13;4951674;28;20233;-64
2022/08/03 02:04:52;;;;;;;3.10;1.98;;;17.50;99.90;;;16.77;100.00;97680.63;4942679;28;20047;-64
2022/08/03 02:07:19;;;;;;;2.92;1.73;;;17.50;99.90;;;16.68;100.00;97674.22;4941437;28;20058;-64
2022/08/03 02:09:50;;;;;;;3.45;1.83;;;17.40;99.90;;;16.61;100.00;97671.16;4956488;28;20051;-64
2022/08/03 02:12:19;;;;;;;2.70;1.92;;;17.40;99.90;;;16.55;100.00;97675.97;4939583;28;20119;-64
2022/08/03 02:14:49;;;;;;;4.65;2.20;;;17.40;99.90;;;16.69;100.00;97681.13;4941323;28;20051;-64
2022/08/03 02:17:17;;;;;;;3.17;1.80;;;17.30;99.90;;;16.76;100.00;97674.53;4938965;28;20051;-64
2022/08/03 02:20:08;;;;;;;3.08;2.00;;;17.30;99.90;;;16.89;100.00;97671.97;4939738;28;20062;-63
2022/08/03 02:22:38;;;;;;;2.95;1.73;;;17.30;99.90;;;16.87;100.00;97673.88;4956498;28;20050;-64
2022/08/03 02:25:11;;;;;;;2.65;1.98;;;17.30;99.90;;;16.77;100.00;97676.22;4954249;28;20062;-64
2022/08/03 02:27:45;;;;;;;4.05;2.15;;;17.30;99.90;;;16.81;100.00;97674.25;4942062;29;20055;-64
2022/08/03 02:30:13;;;;;;;3.47;2.22;;;17.30;99.90;;;16.64;100.00;97683.22;4951998;28;20259;-64
2022/08/03 02:32:51;;;;;;;4.03;1.88;;;17.30;99.90;;;16.58;100.00;97671.38;4941118;28;20051;-64
2022/08/03 02:35:22;;;;;;;2.50;1.95;;;17.30;99.90;;;16.52;100.00;97680.47;4955577;28;20051;-64
2022/08/03 02:37:57;;;;;;;2.13;1.80;;;17.20;99.90;;;16.46;100.00;97677.38;4954535;28;20055;-64
2022/08/03 02:40:27;;;;;;;5.63;2.10;;;17.20;99.90;;;16.51;100.00;97672.69;4953602;28;20118;-64
2022/08/03 02:43:08;;;;;;;2.78;1.85;;;17.10;99.90;;;16.66;100.00;97660.38;4956313;28;20090;-64
2022/08/03 02:45:41;;;;;;;4.50;1.85;;;17.10;99.90;;;16.78;100.00;97653.47;4942721;28;20521;-64
2022/08/03 02:48:16;;;;;;;3.35;1.90;;;17.10;99.90;;;16.89;100.00;97654.47;4942037;28;20063;-63
2022/08/03 02:50:45;;;;;;;2.72;1.92;;;17.10;99.90;;;16.82;100.00;97649.75;4939915;28;20051;-64
2022/08/03 02:53:14;;;;;;;3.42;2.25;;;17.10;99.90;;;16.72;100.00;97652.13;4954710;28;21611;-64
2022/08/03 02:55:41;;;;;;;5.22;2.08;;;17.10;99.90;;;16.64;100.00;97652.59;4938322;28;20047;-64
2022/08/03 02:58:13;;;;;;;4.00;1.90;;;17.10;99.90;;;16.82;100.00;97649.75;4942917;28;20083;-65
2022/08/03 03:00:43;;;;;;;3.75;1.55;;;17.10;99.90;;;16.79;100.00;97650.78;4941256;28;20052;-64
2022/08/03 03:03:11;;;;;;;2.92;1.50;;;17.10;99.90;;;16.67;100.00;97649.81;4940766;28;20051;-64
2022/08/03 03:05:40;;;;;;;2.40;1.70;;;17.10;99.90;;;16.67;100.00;97655.03;4956575;28;20086;-64
2022/08/03 03:08:25;;;;;;;3.85;2.30;;;17.10;99.90;;;16.54;100.00;97656.78;4942711;28;20068;-64
2022/08/03 03:11:00;;;;;;;3.65;2.00;;;17.00;99.90;;;16.46;100.00;97659.88;4954350;28;20043;-63
2022/08/03 03:13:31;;;;;;;2.75;1.95;;;17.10;99.90;;;16.34;100.00;97657.25;4956229;28;20055;-64
2022/08/03 03:16:01;;;;;;;2.53;1.63;;;17.00;99.90;;;16.42;100.00;97653.19;4953794;28;20119;-64
2022/08/03 03:18:31;;;;;;;2.30;1.67;;;17.00;99.90;;;16.56;100.00;97647.03;4953740;28;20142;-64
2022/08/03 03:21:03;;;;;;;2.83;1.80;;;17.00;99.90;;;16.45;100.00;97652.16;4944429;29;20126;-64
2022/08/03 03:23:34;;;;;;;2.80;2.20;;;17.00;99.90;;;16.46;100.00;97648.56;4941401;28;20052;-64
2022/08/03 03:26:03;;;;;;;2.60;1.60;;;17.00;99.90;;;16.56;100.00;97654.03;4957689;28;20527;-64
2022/08/03 03:28:31;;;;;;;2.80;2.17;;;17.00;99.90;;;16.28;100.00;97666.31;4957061;28;20047;-64
2022/08/03 03:30:59;;;;;;;2.78;2.10;;;16.80;99.90;;;16.37;100.00;97667.50;4939878;28;20053;-64
2022/08/03 03:33:26;;;;;;;3.40;2.50;;;16.80;99.90;;;16.28;100.00;97667.19;4959513;28;20101;-64
2022/08/03 03:35:56;;;;;;;3.35;2.00;;;16.90;99.90;;;16.39;100.00;97661.22;4939227;29;20070;-64
2022/08/03 03:38:23;;;;;;;3.55;2.13;;;16.90;99.90;;;16.56;100.00;97659.28;4956097;28;20055;-64
2022/08/03 03:40:51;;;;;;;3.10;2.00;;;16.90;99.90;;;16.44;100.00;97655.69;4937525;28;20482;-64
2022/08/03 03:43:18;;;;;;;3.65;1.98;;;16.90;99.90;;;16.22;100.00;97664.13;4954694;28;20066;-64
2022/08/03 03:45:46;;;;;;;3.03;2.15;;;16.90;99.90;;;16.21;100.00;97662.41;4954932;28;20059;-64
2022/08/03 03:48:13;;;;;;;4.72;2.78;;;16.80;99.90;;;16.05;100.00;97676.47;4938768;28;20055;-64
2022/08/03 03:50:42;;;;;;;3.15;2.22;;;16.80;99.90;;;16.09;100.00;97680.59;4937149;28;20066;-64
2022/08/03 03:53:11;;;;;;;5.25;2.83;;;16.70;99.90;;;15.84;100.00;97694.38;4936887;28;20396;-64
2022/08/03 03:55:39;;;;;;;3.42;2.85;;;16.60;99.90;;;15.61;100.00;97708.00;4956574;28;20051;-64
2022/08/03 03:58:26;;;;;;;4.45;3.10;;;16.50;99.90;;;15.60;100.00;97714.16;4939869;28;20058;-64
2022/08/03 04:00:53;;;;;;;4.68;3.05;;;16.50;99.90;;;15.60;100.00;97724.63;4940501;28;20162;-64
2022/08/03 04:03:20;;;;;;;5.88;2.72;;;16.40;99.90;;;15.65;100.00;97727.81;4940558;28;20492;-64
2022/08/03 04:11:25;;;;;;;4.53;2.45;;;16.60;99.90;;;16.18;100.00;97702.75;4941418;29;20071;-64
2022/08/03 04:14:26;;;;;;;7.00;2.10;;;16.70;99.90;;;16.16;100.00;97688.91;4941322;28;20130;-64
2022/08/03 04:16:58;;;;;;;2.65;2.20;;;16.60;99.90;;;16.07;100.00;97677.22;4937422;28;20087;-64
2022/08/03 04:19:46;;;;;;;3.63;2.38;;;16.70;99.90;;;16.07;100.00;97679.84;4954814;28;20115;-64
2022/08/03 04:22:19;;;;;;;2.70;2.05;;;16.60;99.90;;;16.12;100.00;97686.56;4937450;28;20051;-64
2022/08/03 04:24:51;;;;;;;;;;;16.60;99.90;;;16.07;100.00;97694.72;4939440;28;20501;-64
2022/08/03 04:27:25;;;;;;;4.07;2.83;;;16.50;99.90;;;16.03;100.00;97699.31;4936683;28;19930;-64
2022/08/03 04:29:54;;;;;;;4.25;3.05;;;16.60;99.90;;;15.90;100.00;97708.88;4939185;28;20043;-64
2022/08/03 04:32:25;;;;;;;5.97;3.03;;;16.60;99.90;;;15.71;100.00;97717.00;4953366;28;20054;-63
2022/08/03 04:34:52;;;;;;;5.65;2.67;;;16.50;99.90;;;15.79;100.00;97722.63;4955129;28;20058;-64
2022/08/03 04:37:33;;;;;;;8.38;3.35;;;16.50;99.90;;;15.66;100.00;97729.50;4936310;28;20051;-63
2022/08/03 04:40:02;;;;;;;4.47;3.28;;;16.50;99.90;;;15.54;100.00;97731.09;4939769;29;20055;-64
2022/08/03 04:42:32;;;;;;;3.30;2.45;;;16.50;99.90;;;15.96;100.00;97736.44;4952987;28;20154;-64
2022/08/03 04:45:01;;;;;;;4.53;2.95;;;16.60;99.90;;;16.04;100.00;97734.19;4954500;28;20158;-64
2022/08/03 04:47:33;;;;;;;3.40;2.72;;;16.60;99.90;;;16.12;100.00;97724.06;4938243;28;20707;-64
2022/08/03 04:50:02;;;;;;;5.68;2.80;;;16.80;99.90;;;16.22;100.00;97722.56;4954990;28;20042;-64
2022/08/03 04:52:30;;;;;;;6.35;2.47;;;16.90;99.90;;;16.41;100.00;97719.59;4939417;28;20522;-65
2022/08/03 04:54:57;;;;;;;3.45;2.70;;;17.00;99.90;;;16.48;100.00;97718.28;4941169;29;20066;-64
2022/08/03 04:57:24;;;;;;;2.80;2.25;;;17.00;99.90;;;16.60;100.00;97710.56;4942575;28;20157;-65
2022/08/03 04:59:53;;;;;;;3.63;2.40;;;17.10;99.90;;;16.73;100.00;97703.59;4943171;28;20057;-64
2022/08/03 05:02:30;;;;;;;3.42;2.35;;;17.20;99.90;;;16.78;100.00;97704.09;4943729;28;20064;-64
2022/08/03 05:04:58;;;;;;;4.28;2.58;;;17.30;99.90;;;16.89;100.00;97698.19;4942785;28;20089;-64
2022/08/03 05:07:25;;;;;;;4.50;2.30;;;17.30;99.90;;;16.91;100.00;97696.31;4940112;28;20055;-65
2022/08/03 05:10:05;;;;;;;4.43;2.10;;;17.40;99.90;;;17.00;100.00;97697.50;4941699;28;20075;-64
2022/08/03 05:12:46;;;;;;;2.95;2.25;;;17.50;99.90;;;17.13;100.00;97695.72;4944091;28;20051;-64
2022/08/03 05:15:14;;;;;;;3.78;2.63;;;17.60;99.90;;;17.24;100.00;97693.22;4942438;28;20051;-64
2022/08/03 05:17:44;;;;;;;3.72;2.70;;;17.60;99.90;;;17.11;100.00;97698.44;4943194;28;20054;-65
2022/08/03 05:20:11;;;;;;;3.47;2.92;;;17.70;99.90;;;17.21;100.00;97695.22;4942799;28;20050;-64
2022/08/03 05:22:42;;;;;;;3.20;2.40;;;17.80;99.90;;;17.32;100.00;97698.78;4941924;28;20098;-64
2022/08/03 05:25:09;;;;;;;4.85;2.80;;;17.80;99.90;;;17.25;100.00;97692.28;4942350;28;20059;-64
2022/08/03 05:27:45;;;;;;;3.45;2.72;;;;;;;17.51;100.00;97692.25;4940535;28;20134;-64
2022/08/03 05:30:12;;;;;;;3.78;2.97;;;18.00;99.90;;;17.44;100.00;97689.22;4941951;28;20043;-65
2022/08/03 05:32:59;;;;;;;4.32;3.55;;;18.00;99.90;;;17.37;100.00;97684.50;4957307;28;20158;-64
2022/08/03 05:35:27;;;;;;;3.47;2.65;;;18.10;99.90;;;17.67;100.00;97689.41;4954790;28;20043;-64
2022/08/03 05:38:14;;;;;;;4.65;3.05;;;18.30;99.90;;;17.73;100.00;97691.63;4941794;28;20559;-64
2022/08/03 05:40:56;;;;;;;3.95;2.47;;;18.40;99.90;;;17.98;100.00;97688.97;4942947;28;20114;-65
2022/08/03 05:43:43;;;;;;;4.43;2.55;;;18.60;99.90;;;18.33;100.00;97682.97;4942751;28;20062;-64
2022/08/03 05:46:11;;;;;;;4.57;2.20;;;18.90;99.90;;;18.50;100.00;97663.38;4942970;28;20051;-65
2022/08/03 05:48:40;;;;;;;4.18;2.55;;;19.00;99.90;;;18.62;100.00;97664.25;4939715;28;20513;-65
2022/08/03 05:51:09;;;;;;;4.05;2.60;;;19.10;99.90;;;18.53;100.00;97672.81;4959457;28;20047;-65
2022/08/03 05:53:38;;;;;;;4.35;2.20;;;19.30;99.90;;;18.63;100.00;97671.16;4936845;28;20083;-65
2022/08/03 05:56:05;;;;;;;3.88;2.30;;;19.50;99.90;;;18.88;100.00;97664.13;4936281;28;20511;-65
2022/08/03 05:58:45;;;;;;;2.35;1.65;;;19.60;99.90;;;19.22;100.00;97665.03;4943789;28;20047;-65
2022/08/03 06:01:15;;;;;;;4.03;1.90;;;19.70;99.90;;;19.29;100.00;97660.16;4939624;29;20062;-66
2022/08/03 06:03:44;;;;;;;3.13;2.00;;;20.00;99.90;;;19.48;100.00;97665.69;4938974;28;20062;-64
2022/08/03 06:06:11;;;;;;;4.97;1.77;;;20.30;99.90;;;19.63;100.00;97653.09;4940514;29;20956;-64
2022/08/03 06:08:39;;;;;;;3.33;1.90;;;20.40;99.90;;;19.64;100.00;97652.16;4946093;28;20047;-64
2022/08/03 06:11:06;;;;;;;4.05;1.73;;;20.60;99.90;;;19.73;100.00;97646.19;4943313;29;20047;-64
2022/08/03 06:13:34;;;;;;;2.13;1.52;;;20.70;99.90;;;20.04;100.00;97646.38;4941238;28;20131;-65
2022/08/03 06:16:02;;;;;;;3.50;1.67;;;20.80;99.90;;;20.16;100.00;97637.50;4947132;28;20055;-64
2022/08/03 06:18:29;;;;;;;2.67;1.75;;;21.00;99.90;;;20.31;100.00;97631.94;4944498;28;20051;-64
2022/08/03 06:20:56;;;;;;;4.63;2.22;;;21.10;99.90;;;20.35;100.00;97623.66;4944529;29;20074;-64
2022/08/03 06:23:23;;;;;;;2.50;1.50;;;21.30;99.90;;;20.53;100.00;97633.69;4944563;28;20051;-64
2022/08/03 06:26:09;;;;;;;3.92;2.15;;;21.50;99.90;;;20.58;100.00;97631.53;4945336;29;20058;-64
2022/08/03 06:28:39;;;;;;;2.45;1.73;;;21.60;99.90;;;20.79;100.00;97628.91;4943223;29;20497;-65
2022/08/03 06:31:24;;;;;;;3.35;1.70;;;21.70;99.90;;;20.99;100.00;97622.78;4951665;28;20051;-65
2022/08/03 06:34:01;;;;;;;5.32;2.00;;;21.80;99.90;;;21.29;100.00;97624.63;4939371;28;20056;-64
2022/08/03 06:36:49;;;;;;;3.25;1.73;;;22.00;99.90;;;21.50;100.00;97624.59;4938476;29;20488;-65
2022/08/03 06:39:18;;;;;;;2.65;1.38;;;22.30;99.90;;;21.79;100.00;97623.06;4940123;29;20055;-65
2022/08/03 06:41:45;;;;;;;2.65;1.40;;;22.50;99.90;;;21.87;100.00;97616.13;4940854;28;20063;-65
2022/08/03 06:44:12;;;;;;;6.15;1.52;;;22.80;99.90;;;22.14;100.00;97604.06;4941611;28;20047;-64
2022/08/03 06:46:40;;;;;;;2.05;1.25;;;22.90;99.90;;;22.38;100.00;97594.94;4941635;28;20055;-65
2022/08/03 06:49:07;;;;;;;2.38;1.00;;;23.20;99.90;;;22.44;100.00;97582.00;4941079;28;20523;-64
2022/08/03 06:51:36;;;;;;;1.63;1.10;;;23.40;99.90;;;22.80;100.00;97592.81;4953997;28;20051;-64
2022/08/03 06:54:23;;;;;;;2.28;1.10;;;23.60;99.90;;;23.06;100.00;97585.13;4938998;28;20063;-64
2022/08/03 06:56:50;;;;;;;1.90;1.00;;;23.80;99.90;;;23.34;100.00;97590.47;4940503;28;20088;-65
2022/08/03 06:59:17;;;;;;;2.42;1.02;;;24.10;99.90;;;23.42;100.00;97587.91;4938317;28;20055;-64
2022/08/03 07:02:04;;;;;;;3.03;0.90;;;24.40;99.90;;;23.82;100.00;97592.09;4938005;28;20749;-65
2022/08/03 07:04:32;;;;;;;3.17;1.20;;;24.70;99.90;;;24.02;100.00;97584.84;4939402;28;20056;-65
2022/08/03 07:06:59;;;;;;;2.47;0.85;;;24.90;99.90;;;24.20;100.00;97593.66;4937398;28;20047;-64
2022/08/03 07:09:26;;;;;;;4.50;1.08;;;25.20;99.90;;;24.36;100.00;97597.47;4938249;28;20055;-64
2022/08/03 07:11:54;;;;;;;2.10;1.10;;;25.30;99.90;;;24.49;100.00;97591.78;4942358;28;20069;-65
2022/08/03 07:14:21;;;;;;;4.97;1.50;;;25.40;99.90;;;24.62;100.00;97598.38;4941762;28;20133;-64
2022/08/03 07:16:48;;;;;;;2.08;1.15;;;25.60;99.90;;;24.72;100.00;97597.44;4940699;28;20050;-65
2022/08/03 07:19:15;;;;;;;3.13;1.10;;;25.70;99.90;;;24.97;100.00;97595.81;4937985;28;20067;-65
2022/08/03 07:21:42;;;;;;;2.05;1.05;;;25.80;99.90;;;25.02;100.00;97591.69;4940684;29;20082;-65
2022/08/03 07:24:08;;;;;;;4.93;1.25;;;26.00;99.90;;;25.13;100.00;97585.28;4936231;28;20056;-65
2022/08/03 07:26:35;;;;;;;2.30;1.10;;;26.10;99.90;;;25.31;100.00;97592.38;4939191;29;20062;-65
2022/08/03 07:29:02;;;;;;;2.08;1.02;;;26.30;99.90;;;25.38;100.00;97591.59;4936382;28;20401;-64
2022/08/03 07:31:40;;;;;;;4.28;1.17;;;26.40;99.90;;;25.33;100.00;97596.56;4939112;28;20050;-65
2022/08/03 07:34:07;;;;;;;2.60;1.20;;;26.40;99.90;;;25.24;100.00;97586.88;4939193;28;20081;-65
2022/08/03 07:36:34;;;;;;;2.05;1.20;;;26.40;99.90;;;25.36;100.00;97595.41;4939598;28;20161;-65
2022/08/03 07:39:01;;;;;;;4.75;1.30;;;26.30;99.90;;;25.42;100.00;97589.47;4939335;29;20055;-65
2022/08/03 07:41:44;;;;;;;1.90;0.98;;;26.30;99.90;;;25.48;100.00;97591.50;4939763;29;20062;-65
2022/08/03 07:44:12;;;;;;;2.95;1.25;;;26.40;99.90;;;25.52;100.00;97599.97;4942457;28;20660;-64
2022/08/03 07:46:39;;;;;;;3.72;1.20;;;26.40;99.90;;;25.71;100.00;97591.75;4943204;28;20054;-65
2022/08/03 07:49:06;;;;;;;3.38;1.48;;;26.50;99.90;;;25.85;100.00;97592.97;4937858;28;20054;-65
2022/08/03 07:51:33;;;;;;;3.72;1.33;;;26.50;99.90;;;26.02;100.00;97589.41;4939819;28;20604;-65
2022/08/03 07:54:00;;;;;;;2.83;1.33;;;26.70;99.90;;;26.13;100.00;97582.09;4952499;28;20456;-65
2022/08/03 07:56:27;;;;;;;2.00;1.17;;;26.80;99.90;;;26.23;100.00;97586.28;4936370;28;20089;-65
2022/08/03 07:58:55;;;;;;;2.53;1.23;;;26.90;99.90;;;26.41;100.00;97579.94;4955880;28;20312;-65
2022/08/03 08:01:22;;;;;;;2.72;1.10;;;27.10;99.90;;;26.41;100.00;97579.94;4952913;28;20066;-64
2022/08/03 08:03:49;;;;;;;4.20;0.98;;;27.20;99.20;;;26.47;100.00;97584.63;4941146;28;20138;-64
2022/08/03 08:06:20;;;;;;;3.03;1.20;;;27.30;99.20;;;26.61;100.00;97589.31;4947727;28;20058;-64
2022/08/03 08:08:47;;;;;;;2.17;1.25;;;27.40;98.20;;;26.70;100.00;97588.31;4951242;28;20079;-65
2022/08/03 08:11:14;;;;;;;2.38;1.15;;;27.50;98.60;;;26.73;100.00;97589.84;4937431;28;20047;-65
2022/08/03 08:13:41;;;;;;;2.10;1.25;;;27.60;98.50;;;26.69;100.00;97586.66;4940151;28;20530;-65
2022/08/03 08:16:08;;;;;;;2.92;1.15;;;27.70;98.40;;;26.71;100.00;97581.19;4937336;28;20051;-65
2022/08/03 08:18:35;;;;;;;2.63;1.13;;;27.70;98.30;;;26.73;100.00;97586.31;4936086;28;20061;-65
2022/08/03 08:21:02;;;;;;;1.70;1.00;;;27.70;97.50;;;26.76;100.00;97583.34;4940991;28;20059;-65
2022/08/03 08:23:29;;;;;;;2.08;1.00;;;27.70;97.20;;;26.90;100.00;97582.66;4936431;28;20062;-65
2022/08/03 08:26:10;;;;;;;4.22;1.30;;;27.80;97.10;;;27.05;100.00;97585.44;4938106;28;20055;-65
2022/08/03 08:28:37;;;;;;;4.13;1.30;;;27.80;97.00;;;27.21;100.00;97581.94;4942397;28;20059;-65
2022/08/03 08:31:04;;;;;;;2.10;0.80;;;27.90;97.60;;;27.06;100.00;97582.63;4951650;28;20047;-65
2022/08/03 08:33:33;;;;;;;3.60;1.00;;;28.10;96.10;;;27.51;100.00;97580.38;4935279;28;20044;-65
2022/08/03 08:36:20;;;;;;;1.85;0.88;;;28.30;95.30;;;27.73;100.00;97576.09;4940153;28;20058;-65
2022/08/03 08:38:47;;;;;;;3.47;1.10;;;28.50;94.40;;;27.81;100.00;97580.56;4940752;29;20058;-65
2022/08/03 08:41:15;;;;;;;2.78;1.10;;;28.50;95.50;;;28.08;100.00;97579.28;4942311;28;20484;-65
2022/08/03 08:43:42;;;;;;;1.92;1.20;;;28.80;96.00;;;28.16;100.00;97574.72;4939299;28;20598;-64
2022/08/03 08:46:13;;;;;;;2.05;0.90;;;29.00;95.30;;;28.37;100.00;97581.25;4939781;29;20059;-64
2022/08/03 08:48:53;;;;;;;2.60;0.82;;;29.20;94.70;;;28.59;100.00;97579.63;4939440;28;20153;-64
2022/08/03 08:51:21;;;;;;;1.92;0.90;;;29.40;94.30;;;28.46;100.00;97572.16;4949652;28;20083;-64
2022/08/03 08:53:53;;;;;;;1.63;0.80;;;29.60;92.50;;;29.08;100.00;97571.19;4941090;28;20134;-64
2022/08/03 08:56:24;;;;;;;2.10;0.90;;;29.80;91.70;;;29.27;100.00;97569.00;4950555;28;20061;-65
2022/08/03 08:58:58;;;;;;;2.45;0.70;;;30.00;90.80;;;30.27;100.00;97572.91;4935866;28;20043;-65
2022/08/03 09:01:25;;;;;;;1.23;0.80;;;30.40;91.10;;;30.68;100.00;97564.22;4950414;28;20062;-65
2022/08/03 09:03:53;;;;;;;2.67;0.70;;;30.90;90.30;;;30.74;100.00;97564.28;4950889;28;20142;-64
2022/08/03 09:06:21;;;;;;;3.35;0.90;;;31.10;88.70;;;31.02;100.00;97569.69;4951324;28;20051;-65
2022/08/03 09:08:48;;;;;;;3.45;0.80;;;31.30;87.60;;;30.98;100.00;97573.78;4940498;28;20460;-65
2022/08/03 09:11:20;;;;;;;1.42;0.70;;;31.60;86.40;;;32.02;100.00;97564.03;4938228;28;20119;-65
2022/08/03 09:14:09;;;;;;;2.42;0.60;;;31.80;86.30;;;32.12;97.58;97569.03;4938925;28;20040;-65
2022/08/03 09:17:01;;;;;;;1.55;0.70;;;32.10;85.30;;;32.10;97.78;97571.91;4937897;29;20062;-66
2022/08/03 09:19:30;;;;;;;5.18;0.60;;;32.20;83.90;;;32.27;98.94;97569.66;4935173;28;20051;-65
2022/08/03 09:22:13;;;;;;;1.75;0.70;;;32.20;84.20;;;32.98;95.40;97565.59;4937207;28;20055;-66
2022/08/03 09:24:58;;;;;;;1.92;0.65;;;32.50;83.90;;;32.69;96.42;97560.44;4949597;28;20150;-66
2022/08/03 09:27:46;;;;;;;0.88;0.60;;;32.70;82.80;;;33.80;94.33;97560.66;4935291;28;20074;-65
2022/08/03 09:30:17;;;;;;;1.40;0.90;;;32.80;83.20;;;32.81;97.74;97565.19;4938246;28;20055;-65
2022/08/03 09:33:09;;;;;;;2.38;0.90;;;32.70;82.80;;;33.95;94.26;97559.34;4938403;28;20043;-65
2022/08/03 09:35:48;;;;;;;2.50;0.60;;;33.10;82.10;;;33.82;87.52;97564.78;4935989;28;20216;-65
2022/08/03 09:38:24;;;;;;;2.53;0.70;;;33.50;81.40;;;33.15;88.37;97566.03;4939759;28;20071;-66
2022/08/03 09:40:54;;;;;;;8.43;0.70;;;33.30;79.00;;;32.90;89.62;97562.09;4954819;28;20058;-65
2022/08/03 09:43:26;;;;;;;1.70;0.68;;;33.00;79.00;;;32.83;85.87;97563.94;4941482;28;20172;-65
2022/08/03 09:46:03;;;;;;;0.90;0.60;;;33.00;78.20;;;33.86;81.51;97563.31;4941589;28;20055;-65
2022/08/03 09:48:33;;;;;;;2.72;0.68;;;32.80;77.60;;;34.30;80.40;97553.56;4943591;28;20047;-66
2022/08/03 09:51:03;;;;;;;1.88;0.75;;;33.10;78.00;;;33.78;82.39;97551.97;4944981;29;20138;-66
2022/08/03 09:53:43;;;;;;;1.50;0.68;;;33.50;77.40;;;34.31;83.67;97541.75;4941248;28;20047;-66
2022/08/03 09:56:38;;;;;;;1.30;0.60;;;33.50;77.60;;;35.76;76.36;97548.72;4954963;28;20061;-65
2022/08/03 09:59:05;;;;;;;2.35;0.60;;;33.90;77.00;;;35.58;81.39;97554.09;4942611;28;20075;-66
2022/08/03 10:01:34;;;;;;;1.20;0.63;;;34.30;78.20;;;34.86;74.91;97551.94;4954659;28;20194;-65
2022/08/03 10:04:01;;;;;;;1.33;0.50;;;34.30;75.00;;;35.59;76.86;97551.19;4941062;28;20141;-65
2022/08/03 10:06:31;;;;;;;2.22;0.38;;;34.20;76.30;;;36.46;75.93;97549.22;4942700;28;20058;-65
2022/08/03 10:09:13;;;;;;;1.40;0.57;;;34.10;76.30;;;35.22;72.83;97544.13;4940457;28;20528;-65
2022/08/03 10:11:42;;;;;;;1.13;0.50;;;34.20;74.30;;;35.80;71.92;97554.50;4941460;28;20538;-65
2022/08/03 10:14:17;;;;;;;3.15;0.70;;;34.60;75.00;;;36.06;73.25;97550.63;4939464;28;20079;-65
2022/08/03 10:16:51;;;;;;;0.95;0.50;;;34.60;75.00;;;36.25;68.50;97542.50;4954180;28;20143;-65
2022/08/03 10:19:18;;;;;;;1.30;0.60;;;35.00;73.20;;;35.48;70.91;97545.72;4936947;28;20067;-66
2022/08/03 10:22:18;;;;;;;2.60;0.50;;;35.10;72.90;;;35.81;70.55;97543.47;4938902;28;20051;-65
2022/08/03 10:24:58;;;;;;;0.98;0.50;;;34.80;73.00;;;35.86;69.04;97531.97;4939912;28;20126;-65
2022/08/03 10:27:36;;;;;;;3.63;0.60;;;34.90;72.50;;;35.57;69.81;97533.56;4953766;28;20552;-65
2022/08/03 10:30:09;;;;;;;3.85;0.60;;;34.90;72.40;;;35.64;66.34;97528.94;4954247;28;20059;-65
2022/08/03 10:33:14;;;;;;;2.35;0.47;;;34.70;71.30;;;36.55;63.29;97523.50;4955333;28;20082;-65
2022/08/03 10:36:02;;;;;;;1.60;0.60;;;35.10;71.60;;;36.84;66.78;97510.97;4950785;28;20067;-65
2022/08/03 10:38:36;;;;;;;1.10;0.50;;;35.40;71.60;;;36.50;64.58;97516.09;4956203;28;20126;-65
2022/08/03 10:41:06;;;;;;;3.30;0.50;;;35.40;70.50;;;36.96;63.50;97502.84;4953356;28;20146;-65
2022/08/03 10:43:47;;;;;;;1.05;0.50;;;35.60;70.50;;;36.96;66.14;97495.56;4953125;28;20556;-65